X  Fermer Données météorologiques d'aviation de Metar     EDDK Cologne Bonn Airport
Température
64°F Température
52°F Point de rosée
64% Humidité



Vent
6 MPH
10 KM/H
3 M/S
5 KTS



90°
E
Conditions actuelles

Clair Clair
Pression 1016.93 (hPa) - 30.03 (inHg)
Visibilité 6 (mile) - 9.7 (km)
Aéroport
Code de l'aéroport EDDK

Emplacement: Cologne Bonn Airport
Distance: 56 (mi)

Metar:
EDDK 281420Z AUTO 09005KT 050V120 CAVOK 18/11 Q1017 NOSIG

Temps: 2024-05-28 16:20 CEST